Terminal Aerodrome Forecast
Issued by NWS

Home | Current Version | Previous Version | Text Only | Print | Product List | Glossary On
Versions: 1 2 3 4 5 6 7 8 9 10 11 12 13 14 15 16 17 18 19 20 21 22 23 24 25 26 27 28 29 30 31 32 33 34 35 36 37 38 39 40 41 42 43 44 45 46 47 48 49 50
000
FTUS45 KGJT 312139 AAD
TAFVEL
TAF AMD
KVEL 312139Z 3122/0118 21004KT P6SM SCT015 BKN025
     FM010100 30003KT P6SM VCFG SCT015
     FM011200 VRB03KT 3SM BR BKN015
     FM011500 VRB03KT P6SM SCT020=

USA.gov is the U.S. government's official web portal to all federal, state and local government web resources and services.